createdAt,value
2023-09-20T00:01:53.899Z,0.20
2023-09-20T00:04:21.694Z,0.30
2023-09-20T00:06:49.243Z,0.30
2023-09-20T00:09:18.411Z,0.20
2023-09-20T00:11:47.681Z,0.30
2023-09-20T00:14:15.396Z,0.30
2023-09-20T00:16:42.962Z,0.30
2023-09-20T00:19:11.896Z,0.30
2023-09-20T00:21:39.598Z,0.25
2023-09-20T00:24:07.534Z,0.30
2023-09-20T00:26:35.501Z,0.28
2023-09-20T00:29:06.189Z,0.30
2023-09-20T00:31:33.974Z,0.30
2023-09-20T00:34:04.881Z,0.20
2023-09-20T00:36:33.916Z,0.30
2023-09-20T00:39:01.877Z,0.20
2023-09-20T00:41:29.941Z,0.30
2023-09-20T00:43:59.192Z,0.22
2023-09-20T00:46:27.163Z,0.30
2023-09-20T00:48:55.746Z,0.20
2023-09-20T00:51:24.210Z,0.25
2023-09-20T00:53:55.182Z,0.20
2023-09-20T00:56:23.212Z,0.30
2023-09-20T00:58:52.430Z,0.20
2023-09-20T01:01:20.396Z,0.20
2023-09-20T01:03:49.367Z,0.30
2023-09-20T01:06:18.842Z,0.25
2023-09-20T01:08:47.882Z,0.30
2023-09-20T01:11:18.367Z,0.20
2023-09-20T01:13:46.457Z,0.25
2023-09-20T01:16:15.830Z,0.32
2023-09-20T01:18:45.253Z,0.25
2023-09-20T01:21:13.068Z,0.20
2023-09-20T01:23:43.836Z,0.20
2023-09-20T01:26:12.558Z,0.30
2023-09-20T01:28:40.369Z,0.30
2023-09-20T01:31:08.680Z,0.32
2023-09-20T01:33:36.590Z,0.20
2023-09-20T01:36:06.442Z,0.20
2023-09-20T01:38:36.315Z,0.28
2023-09-20T01:41:05.641Z,0.20
2023-09-20T01:43:34.842Z,0.30
2023-09-20T01:46:04.276Z,0.20
2023-09-20T01:48:32.262Z,0.20
2023-09-20T01:50:59.971Z,0.20
2023-09-20T01:53:27.586Z,0.20
2023-09-20T01:55:55.354Z,0.20
2023-09-20T01:58:24.366Z,0.20
2023-09-20T02:00:53.225Z,0.30
2023-09-20T02:03:21.458Z,0.20
2023-09-20T02:05:50.926Z,0.30
2023-09-20T02:08:19.687Z,0.20
2023-09-20T02:10:47.888Z,0.30
2023-09-20T02:13:16.641Z,0.30
2023-09-20T02:15:48.032Z,0.20
2023-09-20T02:18:16.869Z,0.30
2023-09-20T02:20:45.066Z,0.30
2023-09-20T02:23:13.469Z,0.20
2023-09-20T02:25:42.141Z,0.20
2023-09-20T02:28:09.926Z,0.30
2023-09-20T02:30:37.934Z,0.30
2023-09-20T02:33:09.166Z,0.20
2023-09-20T02:35:37.877Z,0.20
2023-09-20T02:38:07.914Z,0.30
2023-09-20T02:40:38.424Z,0.30
2023-09-20T02:43:10.035Z,0.30
2023-09-20T02:45:41.575Z,0.20
2023-09-20T02:48:13.907Z,0.22
2023-09-20T02:50:42.686Z,0.30
2023-09-20T02:53:10.960Z,0.40
2023-09-20T02:55:39.572Z,0.30
2023-09-20T02:58:08.309Z,0.40
2023-09-20T03:00:35.955Z,0.30
2023-09-20T03:03:05.745Z,0.30
2023-09-20T03:05:35.931Z,0.30
2023-09-20T03:08:12.787Z,0.30
2023-09-20T03:10:42.784Z,0.32
2023-09-20T03:13:17.174Z,0.30
2023-09-20T03:15:45.964Z,0.30
2023-09-20T03:18:16.233Z,0.30
2023-09-20T03:20:51.440Z,0.32
2023-09-20T03:23:19.236Z,0.30
2023-09-20T03:25:47.867Z,0.40
2023-09-20T03:28:23.152Z,0.38
2023-09-20T03:30:52.434Z,0.30
2023-09-20T03:33:22.159Z,0.20
2023-09-20T03:35:52.748Z,0.38
2023-09-20T03:38:20.508Z,0.20
2023-09-20T03:40:48.055Z,0.30
2023-09-20T03:43:15.956Z,0.30
2023-09-20T03:45:48.881Z,0.30
2023-09-20T03:48:18.056Z,0.20
2023-09-20T03:50:46.429Z,0.28
2023-09-20T03:53:18.018Z,0.32
2023-09-20T03:55:50.254Z,0.20
2023-09-20T03:58:19.255Z,0.30
2023-09-20T04:00:48.435Z,0.30
2023-09-20T04:03:17.407Z,0.30
2023-09-20T04:05:47.331Z,0.20
2023-09-20T04:08:20.586Z,0.30
2023-09-20T04:10:48.191Z,0.40
2023-09-20T04:13:16.643Z,0.30
2023-09-20T04:15:44.493Z,0.30
2023-09-20T04:18:14.099Z,0.40
2023-09-20T04:20:41.878Z,0.30
2023-09-20T04:23:11.003Z,0.30
2023-09-20T04:25:41.040Z,0.32
2023-09-20T04:28:10.260Z,0.30
2023-09-20T04:30:39.960Z,0.30
2023-09-20T04:33:11.341Z,0.30
2023-09-20T04:35:42.113Z,0.40
2023-09-20T04:38:16.340Z,0.30
2023-09-20T04:40:45.463Z,0.40
2023-09-20T04:43:14.122Z,0.30
2023-09-20T04:45:41.802Z,0.30
2023-09-20T04:48:09.740Z,0.30
2023-09-20T04:50:37.379Z,0.40
2023-09-20T04:53:06.049Z,0.40
2023-09-20T04:55:35.255Z,0.30
2023-09-20T04:58:04.307Z,0.30
2023-09-20T05:00:38.548Z,0.40
2023-09-20T05:03:08.988Z,0.40
2023-09-20T05:05:36.752Z,0.40
2023-09-20T05:08:05.118Z,0.32
2023-09-20T05:10:33.227Z,0.30
2023-09-20T05:13:00.799Z,0.30
2023-09-20T05:15:29.941Z,0.30
2023-09-20T05:17:58.375Z,0.30
2023-09-20T05:20:28.071Z,0.28
2023-09-20T05:22:55.586Z,0.30
2023-09-20T05:25:23.050Z,0.40
2023-09-20T05:27:50.937Z,0.30
2023-09-20T05:30:19.532Z,0.30
2023-09-20T05:32:52.332Z,0.20
2023-09-20T05:35:20.124Z,0.20
2023-09-20T05:37:47.646Z,0.20
2023-09-20T05:40:18.340Z,0.20
2023-09-20T05:42:46.707Z,0.10
2023-09-20T05:45:14.850Z,0.10
2023-09-20T05:47:43.070Z,0.20
2023-09-20T05:50:14.008Z,0.10
2023-09-20T05:52:42.882Z,0.08
2023-09-20T05:55:14.514Z,0.10
2023-09-20T05:57:42.433Z,0.00
2023-09-20T06:00:17.249Z,0.00
2023-09-20T06:02:46.035Z,0.00
2023-09-20T06:05:16.126Z,0.00
2023-09-20T06:07:45.693Z,0.03
2023-09-20T06:10:13.728Z,0.00
2023-09-20T06:12:41.271Z,0.00
2023-09-20T06:15:09.384Z,0.00
2023-09-20T06:17:37.834Z,0.00
2023-09-20T06:20:09.900Z,0.00
2023-09-20T06:22:38.761Z,0.00
2023-09-20T06:25:07.745Z,0.00
2023-09-20T06:27:35.277Z,0.00
2023-09-20T06:30:08.627Z,0.00
2023-09-20T06:32:36.188Z,0.00
2023-09-20T06:35:05.657Z,0.00
2023-09-20T06:37:33.588Z,0.00
2023-09-20T06:40:04.895Z,0.00
2023-09-20T06:42:32.406Z,0.00
2023-09-20T06:44:59.877Z,0.00
2023-09-20T06:47:27.403Z,0.00
2023-09-20T06:49:54.985Z,0.00
2023-09-20T06:52:23.692Z,0.00
2023-09-20T06:54:51.223Z,0.00
2023-09-20T06:57:20.146Z,0.00
2023-09-20T06:59:47.813Z,0.00
2023-09-20T07:02:17.413Z,0.00
2023-09-20T07:04:45.224Z,0.00
2023-09-20T07:07:13.994Z,0.00
2023-09-20T07:09:41.656Z,0.00
2023-09-20T07:12:11.310Z,0.00
2023-09-20T07:14:40.248Z,0.00
2023-09-20T07:17:08.979Z,0.00
2023-09-20T07:19:39.056Z,0.00
2023-09-20T07:22:06.768Z,0.00
2023-09-20T07:24:36.873Z,0.00
2023-09-20T07:27:04.971Z,0.00
2023-09-20T07:29:35.894Z,0.00
2023-09-20T07:32:05.627Z,0.00
2023-09-20T07:34:34.789Z,0.00
2023-09-20T07:37:02.237Z,0.00
2023-09-20T07:39:29.710Z,0.00
2023-09-20T07:41:59.545Z,0.00
2023-09-20T07:44:29.603Z,0.00
2023-09-20T07:46:58.321Z,0.00
2023-09-20T07:49:27.192Z,0.00
2023-09-20T07:51:55.096Z,0.00
2023-09-20T07:54:22.676Z,0.00
2023-09-20T07:56:53.433Z,0.00
2023-09-20T07:59:24.582Z,0.00
2023-09-20T08:01:54.124Z,0.00
2023-09-20T08:04:23.014Z,0.00
2023-09-20T08:06:51.930Z,0.00
2023-09-20T08:09:19.384Z,0.00
2023-09-20T08:11:48.031Z,0.00
2023-09-20T08:14:15.967Z,0.00
2023-09-20T08:17:01.580Z,0.00
2023-09-20T08:19:32.201Z,0.00
2023-09-20T08:22:01.119Z,0.00
2023-09-20T08:24:46.336Z,0.00
2023-09-20T08:27:31.646Z,0.00
2023-09-20T08:30:16.865Z,0.00
2023-09-20T08:33:02.095Z,0.00
2023-09-20T08:35:49.020Z,0.00
2023-09-20T08:38:35.489Z,0.00
2023-09-20T08:41:20.630Z,0.00
2023-09-20T08:44:05.776Z,0.00
2023-09-20T08:46:51.374Z,0.00
2023-09-20T08:49:37.157Z,0.00
2023-09-20T08:52:23.338Z,0.00
2023-09-20T08:55:09.797Z,0.00
2023-09-20T08:57:55.121Z,0.00
2023-09-20T09:00:25.620Z,0.00
2023-09-20T09:02:55.410Z,0.00
2023-09-20T09:05:24.546Z,0.00
2023-09-20T09:07:52.624Z,0.00
2023-09-20T09:10:21.526Z,0.00
2023-09-20T09:12:49.031Z,0.00
2023-09-20T09:15:17.504Z,0.00
2023-09-20T09:17:45.971Z,0.00
2023-09-20T09:20:14.462Z,0.00
2023-09-20T09:22:42.881Z,0.00
2023-09-20T09:25:13.067Z,0.10
2023-09-20T09:27:42.406Z,0.10
2023-09-20T09:30:10.436Z,0.10
2023-09-20T09:32:38.368Z,0.10
2023-09-20T09:35:07.385Z,0.10
2023-09-20T09:37:35.700Z,0.15
2023-09-20T09:40:04.126Z,0.10
2023-09-20T09:42:32.055Z,0.10
2023-09-20T09:45:02.580Z,0.10
2023-09-20T09:47:31.090Z,0.15
2023-09-20T09:50:00.532Z,0.10
2023-09-20T09:52:28.860Z,0.20
2023-09-20T09:54:56.701Z,0.20
2023-09-20T09:57:24.729Z,0.10
2023-09-20T09:59:52.920Z,0.10
2023-09-20T10:02:22.408Z,0.10
2023-09-20T10:04:55.135Z,0.10
2023-09-20T10:07:24.858Z,0.10
2023-09-20T10:09:53.627Z,0.10
2023-09-20T10:12:23.469Z,0.10
2023-09-20T10:14:51.252Z,0.10
2023-09-20T10:17:21.481Z,0.10
2023-09-20T10:19:54.779Z,0.10
2023-09-20T10:22:22.957Z,0.10
2023-09-20T10:24:54.713Z,0.17
2023-09-20T10:27:23.151Z,0.10
2023-09-20T10:30:03.817Z,0.10
2023-09-20T10:32:33.484Z,0.10
2023-09-20T10:35:22.188Z,0.17
2023-09-20T10:38:00.751Z,0.10
2023-09-20T10:40:43.119Z,0.10
2023-09-20T10:43:10.598Z,0.10
2023-09-20T10:45:38.160Z,0.10
2023-09-20T10:48:07.314Z,0.10
2023-09-20T10:50:48.930Z,0.10
2023-09-20T10:53:19.715Z,0.10
2023-09-20T10:55:47.851Z,0.10
2023-09-20T10:58:19.238Z,0.10
2023-09-20T11:00:47.014Z,0.10
2023-09-20T11:03:14.591Z,0.10
2023-09-20T11:05:43.637Z,0.10
2023-09-20T11:08:14.435Z,0.10
2023-09-20T11:10:44.623Z,0.10
2023-09-20T11:13:13.226Z,0.10
2023-09-20T11:15:42.930Z,0.10
2023-09-20T11:18:10.800Z,0.10
2023-09-20T11:20:38.550Z,0.15
2023-09-20T11:23:06.657Z,0.10
2023-09-20T11:25:35.841Z,0.10
2023-09-20T11:28:05.440Z,0.10
2023-09-20T11:30:34.517Z,0.10
2023-09-20T11:35:54.023Z,0.10
2023-09-20T11:38:23.643Z,0.10
2023-09-20T11:40:52.758Z,0.10
2023-09-20T11:43:21.893Z,0.10
2023-09-20T11:46:00.465Z,0.10
2023-09-20T11:48:29.652Z,0.10
2023-09-20T11:50:57.945Z,0.10
2023-09-20T11:53:25.617Z,0.10
2023-09-20T11:55:57.062Z,0.10
2023-09-20T11:58:24.538Z,0.10
2023-09-20T12:00:52.679Z,0.10
2023-09-20T12:03:20.260Z,0.10
2023-09-20T12:05:47.823Z,0.10
2023-09-20T12:08:15.683Z,0.10
2023-09-20T12:10:43.692Z,0.10
2023-09-20T12:13:12.494Z,0.13
2023-09-20T12:15:44.212Z,0.10
2023-09-20T12:18:15.296Z,0.10
2023-09-20T12:20:43.074Z,0.10
2023-09-20T12:23:10.684Z,0.10
2023-09-20T12:25:38.132Z,0.10
2023-09-20T12:28:05.854Z,0.10
2023-09-20T12:30:34.743Z,0.10
2023-09-20T12:33:05.573Z,0.10
2023-09-20T12:35:34.398Z,0.10
2023-09-20T12:38:02.990Z,0.10
2023-09-20T12:40:30.469Z,0.10
2023-09-20T12:43:00.021Z,0.10
2023-09-20T12:45:27.517Z,0.20
2023-09-20T12:47:56.806Z,0.10
2023-09-20T12:50:24.511Z,0.10
2023-09-20T12:52:52.107Z,0.10
2023-09-20T12:55:19.601Z,0.20
2023-09-20T12:57:48.670Z,0.10
2023-09-20T13:00:26.408Z,0.10
2023-09-20T13:03:00.505Z,0.10
2023-09-20T13:05:28.808Z,0.10
2023-09-20T13:07:57.607Z,0.10
2023-09-20T13:10:25.245Z,0.10
2023-09-20T13:12:52.758Z,0.10
2023-09-20T13:15:21.748Z,0.10
2023-09-20T13:17:52.122Z,0.10
2023-09-20T13:20:21.722Z,0.10
2023-09-20T13:22:53.591Z,0.10
2023-09-20T13:25:22.131Z,0.10
2023-09-20T13:27:49.885Z,0.10
2023-09-20T13:30:18.350Z,0.10
2023-09-20T13:32:48.201Z,0.10
2023-09-20T13:35:17.486Z,0.10
2023-09-20T13:37:47.137Z,0.10
2023-09-20T13:40:16.485Z,0.10
2023-09-20T13:42:45.130Z,0.10
2023-09-20T13:45:14.126Z,0.10
2023-09-20T13:47:43.259Z,0.10
2023-09-20T13:50:11.764Z,0.05
2023-09-20T13:52:41.361Z,0.10
2023-09-20T13:55:12.392Z,0.10
2023-09-20T13:57:39.935Z,0.05
2023-09-20T14:00:11.857Z,0.10
2023-09-20T14:02:41.501Z,0.10
2023-09-20T14:05:15.368Z,0.10
2023-09-20T14:07:44.216Z,0.10
2023-09-20T14:10:13.365Z,0.10
2023-09-20T14:12:42.224Z,0.10
2023-09-20T14:15:12.308Z,0.10
2023-09-20T14:17:41.237Z,0.10
2023-09-20T14:20:12.968Z,0.10
2023-09-20T14:22:40.653Z,0.10
2023-09-20T14:25:12.677Z,0.10
2023-09-20T14:27:42.424Z,0.10
2023-09-20T14:30:11.569Z,0.10
2023-09-20T14:32:40.002Z,0.10
2023-09-20T14:35:08.752Z,0.10
2023-09-20T14:37:36.628Z,0.10
2023-09-20T14:40:04.720Z,0.10
2023-09-20T14:42:32.250Z,0.10
2023-09-20T14:45:01.127Z,0.10
2023-09-20T14:47:28.691Z,0.10
2023-09-20T14:49:56.493Z,0.10
2023-09-20T14:52:25.270Z,0.10
2023-09-20T14:54:54.759Z,0.10
2023-09-20T14:57:22.909Z,0.10
2023-09-20T14:59:53.946Z,0.10
2023-09-20T15:02:22.900Z,0.10
2023-09-20T15:04:50.388Z,0.13
2023-09-20T15:07:17.991Z,0.10
2023-09-20T15:09:47.734Z,0.10
2023-09-20T15:12:17.121Z,0.10
2023-09-20T15:14:45.120Z,0.10
2023-09-20T15:17:12.844Z,0.10
2023-09-20T15:19:41.700Z,0.10
2023-09-20T15:22:09.169Z,0.20
2023-09-20T15:24:36.850Z,0.10
2023-09-20T15:27:04.314Z,0.10
2023-09-20T15:29:33.144Z,0.10
2023-09-20T15:32:00.666Z,0.15
2023-09-20T15:34:28.236Z,0.17
2023-09-20T15:36:57.038Z,0.10
2023-09-20T15:39:24.846Z,0.10
2023-09-20T15:41:52.404Z,0.10
2023-09-20T15:44:20.104Z,0.10
2023-09-20T15:46:50.038Z,0.10
2023-09-20T15:49:18.177Z,0.10
2023-09-20T15:51:46.408Z,0.10
2023-09-20T15:54:15.458Z,0.10
2023-09-20T15:56:42.974Z,0.10
2023-09-20T15:59:10.966Z,0.10
2023-09-20T16:01:38.434Z,0.10
2023-09-20T16:04:08.555Z,0.20
2023-09-20T16:06:36.652Z,0.10
2023-09-20T16:09:04.459Z,0.10
2023-09-20T16:11:34.334Z,0.10
2023-09-20T16:14:02.342Z,0.20
2023-09-20T16:16:29.887Z,0.10
2023-09-20T16:18:57.810Z,0.10
2023-09-20T16:21:25.745Z,0.10
2023-09-20T16:23:53.341Z,0.10
2023-09-20T16:26:21.290Z,0.10
2023-09-20T16:28:50.138Z,0.15
2023-09-20T16:31:17.653Z,0.10
2023-09-20T16:33:47.324Z,0.10
2023-09-20T16:36:14.974Z,0.13
2023-09-20T16:38:42.480Z,0.10
2023-09-20T16:41:10.277Z,0.20
2023-09-20T16:43:37.789Z,0.10
2023-09-20T16:46:07.527Z,0.10
2023-09-20T16:48:36.570Z,0.10
2023-09-20T16:51:05.303Z,0.10
2023-09-20T16:53:34.995Z,0.20
2023-09-20T16:56:03.349Z,0.17
2023-09-20T16:58:30.817Z,0.20
2023-09-20T17:00:58.318Z,0.10
2023-09-20T17:03:27.493Z,0.10
2023-09-20T17:05:55.885Z,0.10
2023-09-20T17:08:23.446Z,0.20
2023-09-20T17:10:50.913Z,0.10
2023-09-20T17:13:18.379Z,0.13
2023-09-20T17:15:45.973Z,0.20
2023-09-20T17:18:13.557Z,0.10
2023-09-20T17:20:42.517Z,0.20
2023-09-20T17:23:11.122Z,0.10
2023-09-20T17:25:38.651Z,0.20
2023-09-20T17:28:07.291Z,0.13
2023-09-20T17:30:34.815Z,0.10
2023-09-20T17:33:03.831Z,0.10
2023-09-20T17:35:31.602Z,0.10
2023-09-20T17:38:00.465Z,0.20
2023-09-20T17:40:30.581Z,0.20
2023-09-20T17:42:58.530Z,0.20
2023-09-20T17:45:25.985Z,0.20
2023-09-20T17:47:55.408Z,0.10
2023-09-20T17:50:23.045Z,0.20
2023-09-20T17:52:52.106Z,0.20
2023-09-20T17:55:21.367Z,0.20
2023-09-20T17:57:50.718Z,0.20
2023-09-20T18:00:25.019Z,0.20
2023-09-20T18:02:52.623Z,0.13
2023-09-20T18:05:20.236Z,0.20
2023-09-20T18:07:47.682Z,0.15
2023-09-20T18:10:16.001Z,0.20
2023-09-20T18:12:44.934Z,0.30
2023-09-20T18:15:12.768Z,0.10
2023-09-20T18:17:44.850Z,0.25
2023-09-20T18:20:12.692Z,0.20
2023-09-20T18:22:40.808Z,0.20
2023-09-20T18:25:10.878Z,0.20
2023-09-20T18:27:38.441Z,0.20
2023-09-20T18:30:11.355Z,0.10
2023-09-20T18:32:39.130Z,0.20
2023-09-20T18:35:07.304Z,0.20
2023-09-20T18:37:34.840Z,0.20
2023-09-20T18:40:03.240Z,0.20
2023-09-20T18:42:30.778Z,0.20
2023-09-20T18:44:59.044Z,0.20
2023-09-20T18:47:37.715Z,0.30
2023-09-20T18:50:14.182Z,0.20
2023-09-20T18:52:42.106Z,0.20
2023-09-20T18:55:10.702Z,0.20
2023-09-20T18:57:38.223Z,0.20
2023-09-20T19:00:08.886Z,0.20
2023-09-20T19:02:37.833Z,0.20
2023-09-20T19:05:05.673Z,0.20
2023-09-20T19:07:33.159Z,0.20
2023-09-20T19:10:00.763Z,0.10
2023-09-20T19:12:28.394Z,0.20
2023-09-20T19:14:56.151Z,0.10
2023-09-20T19:17:33.812Z,0.30
2023-09-20T19:20:06.372Z,0.20
2023-09-20T19:22:34.169Z,0.20
2023-09-20T19:25:02.227Z,0.20
2023-09-20T19:27:29.802Z,0.20
2023-09-20T19:30:01.418Z,0.20
2023-09-20T19:32:29.127Z,0.20
2023-09-20T19:35:01.099Z,0.20
2023-09-20T19:37:33.931Z,0.20
2023-09-20T19:40:02.973Z,0.10
2023-09-20T19:42:32.872Z,0.20
2023-09-20T19:45:01.805Z,0.28
2023-09-20T19:47:29.470Z,0.20
2023-09-20T19:49:57.507Z,0.20
2023-09-20T19:52:24.970Z,0.20
2023-09-20T19:54:55.132Z,0.22
2023-09-20T19:57:22.953Z,0.28
2023-09-20T19:59:50.580Z,0.20
2023-09-20T20:02:20.027Z,0.20
2023-09-20T20:04:49.083Z,0.10
2023-09-20T20:07:27.447Z,0.28
2023-09-20T20:09:58.307Z,0.20
2023-09-20T20:12:25.772Z,0.22
2023-09-20T20:14:55.074Z,0.10
2023-09-20T20:17:22.625Z,0.20
2023-09-20T20:19:50.225Z,0.20
2023-09-20T20:22:17.653Z,0.10
2023-09-20T20:24:45.204Z,0.20
2023-09-20T20:27:14.213Z,0.20
2023-09-20T20:29:42.747Z,0.20
2023-09-20T20:32:10.258Z,0.20
2023-09-20T20:34:38.477Z,0.20
2023-09-20T20:37:06.843Z,0.30
2023-09-20T20:39:34.932Z,0.30
2023-09-20T20:42:02.476Z,0.20
2023-09-20T20:44:31.402Z,0.20
2023-09-20T20:46:59.114Z,0.20
2023-09-20T20:49:27.734Z,0.30
2023-09-20T20:51:55.294Z,0.20
2023-09-20T20:54:25.515Z,0.10
2023-09-20T20:56:54.384Z,0.13
2023-09-20T20:59:23.781Z,0.20
2023-09-20T21:01:52.961Z,0.20
2023-09-20T21:04:21.654Z,0.20
2023-09-20T21:06:49.471Z,0.30
2023-09-20T21:09:16.964Z,0.20
2023-09-20T21:11:44.696Z,0.30
2023-09-20T21:14:12.271Z,0.20
2023-09-20T21:16:39.971Z,0.20
2023-09-20T21:19:08.763Z,0.20
2023-09-20T21:21:36.323Z,0.20
2023-09-20T21:24:05.416Z,0.20
2023-09-20T21:26:33.031Z,0.20
2023-09-20T21:29:00.519Z,0.20
2023-09-20T21:31:29.236Z,0.20
2023-09-20T21:33:57.999Z,0.30
2023-09-20T21:36:28.366Z,0.20
2023-09-20T21:38:56.559Z,0.28
2023-09-20T21:41:24.111Z,0.20
2023-09-20T21:43:51.565Z,0.20
2023-09-20T21:46:19.066Z,0.20
2023-09-20T21:48:47.751Z,0.30
2023-09-20T21:51:15.509Z,0.20
2023-09-20T21:53:44.509Z,0.20
2023-09-20T21:56:12.423Z,0.20
2023-09-20T21:58:40.140Z,0.20
2023-09-20T22:01:07.750Z,0.20
2023-09-20T22:03:35.436Z,0.20
2023-09-20T22:06:03.023Z,0.20
2023-09-20T22:08:33.734Z,0.20
2023-09-20T22:11:06.078Z,0.20
2023-09-20T22:13:37.587Z,0.20
2023-09-20T22:16:07.637Z,0.20
2023-09-20T22:18:37.049Z,0.20
2023-09-20T22:21:09.112Z,0.20
2023-09-20T22:23:37.257Z,0.20
2023-09-20T22:26:12.177Z,0.20
2023-09-20T22:28:39.730Z,0.30
2023-09-20T22:31:07.999Z,0.20
2023-09-20T22:33:37.578Z,0.20
2023-09-20T22:36:14.935Z,0.20
2023-09-20T22:38:44.656Z,0.20
2023-09-20T22:41:16.521Z,0.20
2023-09-20T22:43:46.058Z,0.20
2023-09-20T22:46:13.584Z,0.20
2023-09-20T22:48:42.134Z,0.25
2023-09-20T22:51:10.315Z,0.30
2023-09-20T22:53:38.885Z,0.30
2023-09-20T22:56:07.547Z,0.20
2023-09-20T22:58:36.450Z,0.20
2023-09-20T23:01:06.785Z,0.20
2023-09-20T23:03:34.798Z,0.20
2023-09-20T23:06:04.289Z,0.20
2023-09-20T23:08:34.849Z,0.20
2023-09-20T23:11:02.476Z,0.25
2023-09-20T23:13:32.376Z,0.20
2023-09-20T23:16:01.233Z,0.30
2023-09-20T23:18:29.581Z,0.20
2023-09-20T23:20:57.332Z,0.20
2023-09-20T23:23:26.312Z,0.20
2023-09-20T23:25:55.056Z,0.20
2023-09-20T23:28:24.077Z,0.20
2023-09-20T23:30:58.866Z,0.20
2023-09-20T23:33:36.990Z,0.20
2023-09-20T23:36:05.580Z,0.20
2023-09-20T23:38:33.577Z,0.20
2023-09-20T23:41:06.016Z,0.30
2023-09-20T23:43:34.810Z,0.20
2023-09-20T23:46:09.063Z,0.20
2023-09-20T23:48:38.517Z,0.22
2023-09-20T23:51:08.699Z,0.30
2023-09-20T23:53:37.035Z,0.20
2023-09-20T23:56:05.537Z,0.30
2023-09-20T23:58:33.305Z,0.25
